sensor_id;sensor_type;location;lat;lon;timestamp;pressure;altitude;pressure_sealevel;temperature;humidity
21902;BME280;11115;46.038;14.612;2023-11-21T00:00:20;97850.50;;;6.41;100.00
21902;BME280;11115;46.038;14.612;2023-11-21T00:02:48;97840.31;;;6.42;100.00
21902;BME280;11115;46.038;14.612;2023-11-21T00:05:16;97808.81;;;6.15;100.00
21902;BME280;11115;46.038;14.612;2023-11-21T00:07:44;97850.19;;;6.24;100.00
21902;BME280;11115;46.038;14.612;2023-11-21T00:10:13;97843.78;;;6.28;100.00
21902;BME280;11115;46.038;14.612;2023-11-21T00:12:42;97815.38;;;6.19;100.00
21902;BME280;11115;46.038;14.612;2023-11-21T00:15:10;97830.28;;;6.32;100.00
21902;BME280;11115;46.038;14.612;2023-11-21T00:17:39;97836.75;;;6.41;100.00
21902;BME280;11115;46.038;14.612;2023-11-21T00:20:08;97850.19;;;6.24;100.00
21902;BME280;11115;46.038;14.612;2023-11-21T00:22:39;97849.00;;;6.30;100.00
21902;BME280;11115;46.038;14.612;2023-11-21T00:25:08;97855.69;;;6.43;100.00
21902;BME280;11115;46.038;14.612;2023-11-21T00:27:36;97795.84;;;6.02;100.00
21902;BME280;11115;46.038;14.612;2023-11-21T00:30:05;97858.06;;;6.49;100.00
21902;BME280;11115;46.038;14.612;2023-11-21T00:32:35;97839.19;;;6.24;100.00
21902;BME280;11115;46.038;14.612;2023-11-21T00:35:04;97848.91;;;6.35;100.00
21902;BME280;11115;46.038;14.612;2023-11-21T00:37:32;97821.69;;;6.20;100.00
21902;BME280;11115;46.038;14.612;2023-11-21T00:40:01;97834.13;;;6.31;100.00
21902;BME280;11115;46.038;14.612;2023-11-21T00:42:33;97838.91;;;6.44;100.00
21902;BME280;11115;46.038;14.612;2023-11-21T00:45:03;97843.28;;;6.45;100.00
21902;BME280;11115;46.038;14.612;2023-11-21T00:47:32;97834.59;;;6.38;100.00
21902;BME280;11115;46.038;14.612;2023-11-21T00:50:00;97830.16;;;6.42;100.00
21902;BME280;11115;46.038;14.612;2023-11-21T00:52:29;97837.06;;;6.39;100.00
21902;BME280;11115;46.038;14.612;2023-11-21T00:54:57;97824.28;;;6.30;100.00
21902;BME280;11115;46.038;14.612;2023-11-21T00:57:26;97825.59;;;6.32;100.00
21902;BME280;11115;46.038;14.612;2023-11-21T00:59:54;97836.44;;;6.43;100.00
21902;BME280;11115;46.038;14.612;2023-11-21T01:02:22;97837.19;;;6.29;100.00
21902;BME280;11115;46.038;14.612;2023-11-21T01:04:52;97821.31;;;6.26;100.00
21902;BME280;11115;46.038;14.612;2023-11-21T01:07:20;97829.94;;;6.38;100.00
21902;BME280;11115;46.038;14.612;2023-11-21T01:09:49;97828.22;;;6.43;100.00
21902;BME280;11115;46.038;14.612;2023-11-21T01:12:18;97823.63;;;6.38;100.00
21902;BME280;11115;46.038;14.612;2023-11-21T01:14:46;97812.94;;;6.36;100.00
21902;BME280;11115;46.038;14.612;2023-11-21T01:17:14;97799.53;;;6.30;100.00
21902;BME280;11115;46.038;14.612;2023-11-21T01:19:42;97790.78;;;6.28;100.00
21902;BME280;11115;46.038;14.612;2023-11-21T01:22:10;97763.56;;;6.13;100.00
21902;BME280;11115;46.038;14.612;2023-11-21T01:24:38;97755.25;;;6.18;100.00
21902;BME280;11115;46.038;14.612;2023-11-21T01:27:06;97779.88;;;6.23;100.00
21902;BME280;11115;46.038;14.612;2023-11-21T01:29:35;97774.19;;;6.19;100.00
21902;BME280;11115;46.038;14.612;2023-11-21T01:32:03;97772.69;;;6.08;100.00
21902;BME280;11115;46.038;14.612;2023-11-21T01:34:31;97779.88;;;6.23;100.00
21902;BME280;11115;46.038;14.612;2023-11-21T01:36:59;97784.25;;;6.24;100.00
21902;BME280;11115;46.038;14.612;2023-11-21T01:39:28;97777.97;;;6.23;100.00
21902;BME280;11115;46.038;14.612;2023-11-21T01:41:56;97759.84;;;6.22;100.00
21902;BME280;11115;46.038;14.612;2023-11-21T01:44:24;97781.88;;;6.36;100.00
21902;BME280;11115;46.038;14.612;2023-11-21T01:46:52;97796.88;;;6.44;100.00
21902;BME280;11115;46.038;14.612;2023-11-21T01:49:22;97759.53;;;6.24;100.00
21902;BME280;11115;46.038;14.612;2023-11-21T01:51:50;97766.38;;;6.26;100.00
21902;BME280;11115;46.038;14.612;2023-11-21T01:54:21;97801.69;;;6.33;100.00
21902;BME280;11115;46.038;14.612;2023-11-21T01:56:49;97782.84;;;6.26;100.00
21902;BME280;11115;46.038;14.612;2023-11-21T01:59:21;97816.03;;;6.30;100.00
21902;BME280;11115;46.038;14.612;2023-11-21T02:01:50;97811.00;;;6.37;100.00
21902;BME280;11115;46.038;14.612;2023-11-21T02:04:18;97815.28;;;6.43;100.00
21902;BME280;11115;46.038;14.612;2023-11-21T02:06:48;97818.13;;;6.38;100.00
21902;BME280;11115;46.038;14.612;2023-11-21T02:09:24;97823.91;;;6.36;100.00
21902;BME280;11115;46.038;14.612;2023-11-21T02:11:53;97815.88;;;6.40;100.00
21902;BME280;11115;46.038;14.612;2023-11-21T02:14:28;97810.91;;;6.42;100.00
21902;BME280;11115;46.038;14.612;2023-11-21T02:16:57;97804.28;;;6.43;100.00
21902;BME280;11115;46.038;14.612;2023-11-21T02:19:25;97774.16;;;6.38;100.00
21902;BME280;11115;46.038;14.612;2023-11-21T02:21:53;97780.69;;;6.42;100.00
21902;BME280;11115;46.038;14.612;2023-11-21T02:24:22;97780.28;;;6.49;100.00
21902;BME280;11115;46.038;14.612;2023-11-21T02:26:50;97773.34;;;6.37;100.00
21902;BME280;11115;46.038;14.612;2023-11-21T02:29:19;97775.78;;;6.39;100.00
21902;BME280;11115;46.038;14.612;2023-11-21T02:31:51;97773.91;;;6.34;100.00
21902;BME280;11115;46.038;14.612;2023-11-21T02:34:23;97757.59;;;6.43;100.00
21902;BME280;11115;46.038;14.612;2023-11-21T02:36:52;97754.03;;;6.43;100.00
21902;BME280;11115;46.038;14.612;2023-11-21T02:39:20;97765.66;;;6.53;100.00
21902;BME280;11115;46.038;14.612;2023-11-21T02:41:51;97768.41;;;6.53;100.00
21902;BME280;11115;46.038;14.612;2023-11-21T02:44:19;97771.38;;;6.57;100.00
21902;BME280;11115;46.038;14.612;2023-11-21T02:46:47;97764.19;;;6.75;100.00
21902;BME280;11115;46.038;14.612;2023-11-21T02:49:15;97769.19;;;6.73;100.00
21902;BME280;11115;46.038;14.612;2023-11-21T02:51:43;97765.41;;;6.68;100.00
21902;BME280;11115;46.038;14.612;2023-11-21T02:54:11;97758.56;;;6.66;100.00
21902;BME280;11115;46.038;14.612;2023-11-21T02:56:39;97773.84;;;6.72;100.00
21902;BME280;11115;46.038;14.612;2023-11-21T02:59:08;97786.00;;;6.52;100.00
21902;BME280;11115;46.038;14.612;2023-11-21T03:01:36;97772.72;;;6.59;100.00
21902;BME280;11115;46.038;14.612;2023-11-21T03:04:04;97766.53;;;6.67;100.00
21902;BME280;11115;46.038;14.612;2023-11-21T03:06:33;97763.56;;;6.64;100.00
21902;BME280;11115;46.038;14.612;2023-11-21T03:09:01;97768.16;;;6.68;100.00
21902;BME280;11115;46.038;14.612;2023-11-21T03:11:29;97759.28;;;6.72;100.00
21902;BME280;11115;46.038;14.612;2023-11-21T03:13:59;97760.63;;;6.74;100.00
21902;BME280;11115;46.038;14.612;2023-11-21T03:16:27;97768.75;;;6.65;100.00
21902;BME280;11115;46.038;14.612;2023-11-21T03:18:55;97763.41;;;6.55;100.00
21902;BME280;11115;46.038;14.612;2023-11-21T03:21:23;97768.25;;;6.63;100.00
21902;BME280;11115;46.038;14.612;2023-11-21T03:23:52;97766.13;;;6.74;100.00
21902;BME280;11115;46.038;14.612;2023-11-21T03:26:20;97754.31;;;6.74;100.00
21902;BME280;11115;46.038;14.612;2023-11-21T03:28:49;97769.47;;;6.71;100.00
21902;BME280;11115;46.038;14.612;2023-11-21T03:31:18;97767.84;;;6.70;100.00
21902;BME280;11115;46.038;14.612;2023-11-21T03:33:46;97775.66;;;6.63;100.00
21902;BME280;11115;46.038;14.612;2023-11-21T03:36:15;97783.78;;;6.54;100.00
21902;BME280;11115;46.038;14.612;2023-11-21T03:38:45;97778.34;;;6.68;100.00
21902;BME280;11115;46.038;14.612;2023-11-21T03:41:13;97776.59;;;6.72;100.00
21902;BME280;11115;46.038;14.612;2023-11-21T03:43:41;97773.66;;;6.68;100.00
21902;BME280;11115;46.038;14.612;2023-11-21T03:46:12;97784.13;;;6.66;100.00
21902;BME280;11115;46.038;14.612;2023-11-21T03:48:42;97797.97;;;6.61;100.00
21902;BME280;11115;46.038;14.612;2023-11-21T03:51:09;97785.19;;;6.52;100.00
21902;BME280;11115;46.038;14.612;2023-11-21T03:53:37;97787.00;;;6.43;100.00
21902;BME280;11115;46.038;14.612;2023-11-21T03:56:09;97809.63;;;6.53;100.00
21902;BME280;11115;46.038;14.612;2023-11-21T03:58:38;97792.41;;;6.48;100.00
21902;BME280;11115;46.038;14.612;2023-11-21T04:01:06;97815.13;;;6.53;100.00
21902;BME280;11115;46.038;14.612;2023-11-21T04:03:34;97803.09;;;6.49;100.00
21902;BME280;11115;46.038;14.612;2023-11-21T04:06:03;97801.06;;;6.55;100.00
21902;BME280;11115;46.038;14.612;2023-11-21T04:08:32;97798.25;;;6.60;100.00
21902;BME280;11115;46.038;14.612;2023-11-21T04:11:00;97789.06;;;6.51;100.00
21902;BME280;11115;46.038;14.612;2023-11-21T04:13:28;97814.31;;;6.53;100.00
21902;BME280;11115;46.038;14.612;2023-11-21T04:15:57;97828.50;;;6.60;100.00
21902;BME280;11115;46.038;14.612;2023-11-21T04:18:25;97834.06;;;6.55;100.00
21902;BME280;11115;46.038;14.612;2023-11-21T04:20:53;97840.75;;;6.49;100.00
21902;BME280;11115;46.038;14.612;2023-11-21T04:23:21;97851.59;;;6.59;100.00
21902;BME280;11115;46.038;14.612;2023-11-21T04:25:49;97841.94;;;6.61;100.00
21902;BME280;11115;46.038;14.612;2023-11-21T04:28:18;97832.19;;;6.50;100.00
21902;BME280;11115;46.038;14.612;2023-11-21T04:30:46;97833.84;;;6.51;100.00
21902;BME280;11115;46.038;14.612;2023-11-21T04:33:14;97846.53;;;6.47;100.00
21902;BME280;11115;46.038;14.612;2023-11-21T04:35:42;97809.88;;;6.19;100.00
21902;BME280;11115;46.038;14.612;2023-11-21T04:38:10;97828.56;;;6.36;100.00
21902;BME280;11115;46.038;14.612;2023-11-21T04:40:38;97854.41;;;6.54;100.00
21902;BME280;11115;46.038;14.612;2023-11-21T04:43:06;97853.00;;;6.56;100.00
21902;BME280;11115;46.038;14.612;2023-11-21T04:45:34;97850.41;;;6.46;100.00
21902;BME280;11115;46.038;14.612;2023-11-21T04:48:02;97852.03;;;6.47;100.00
21902;BME280;11115;46.038;14.612;2023-11-21T04:50:32;97845.84;;;6.55;100.00
21902;BME280;11115;46.038;14.612;2023-11-21T04:53:00;97816.63;;;6.46;100.00
21902;BME280;11115;46.038;14.612;2023-11-21T04:55:27;97833.19;;;6.59;100.00
21902;BME280;11115;46.038;14.612;2023-11-21T04:57:56;97814.69;;;6.46;100.00
21902;BME280;11115;46.038;14.612;2023-11-21T05:00:24;97828.56;;;6.55;100.00
21902;BME280;11115;46.038;14.612;2023-11-21T05:02:52;97828.78;;;6.58;100.00
21902;BME280;11115;46.038;14.612;2023-11-21T05:05:20;97824.63;;;6.61;100.00
21902;BME280;11115;46.038;14.612;2023-11-21T05:07:49;97770.63;;;6.19;100.00
21902;BME280;11115;46.038;14.612;2023-11-21T05:10:17;97825.47;;;6.43;100.00
21902;BME280;11115;46.038;14.612;2023-11-21T05:12:45;97844.19;;;6.41;100.00
21902;BME280;11115;46.038;14.612;2023-11-21T05:15:15;97837.25;;;6.43;100.00
21902;BME280;11115;46.038;14.612;2023-11-21T05:17:44;97832.28;;;6.45;100.00
21902;BME280;11115;46.038;14.612;2023-11-21T05:20:13;97829.53;;;6.45;100.00
21902;BME280;11115;46.038;14.612;2023-11-21T05:22:45;97831.47;;;6.45;100.00
21902;BME280;11115;46.038;14.612;2023-11-21T05:25:13;97829.94;;;6.38;100.00
21902;BME280;11115;46.038;14.612;2023-11-21T05:27:40;97837.47;;;6.47;100.00
21902;BME280;11115;46.038;14.612;2023-11-21T05:30:09;97824.13;;;6.40;100.00
21902;BME280;11115;46.038;14.612;2023-11-21T05:32:39;97832.41;;;6.54;100.00
21902;BME280;11115;46.038;14.612;2023-11-21T05:35:09;97840.97;;;6.52;100.00
21902;BME280;11115;46.038;14.612;2023-11-21T05:37:44;97847.53;;;6.56;100.00
21902;BME280;11115;46.038;14.612;2023-11-21T05:40:14;97818.63;;;6.40;100.00
21902;BME280;11115;46.038;14.612;2023-11-21T05:42:43;97826.88;;;6.40;100.00
21902;BME280;11115;46.038;14.612;2023-11-21T05:45:12;97836.88;;;6.50;100.00
21902;BME280;11115;46.038;14.612;2023-11-21T05:47:41;97825.25;;;6.39;100.00
21902;BME280;11115;46.038;14.612;2023-11-21T05:50:10;97837.69;;;6.50;100.00
21902;BME280;11115;46.038;14.612;2023-11-21T05:52:46;97828.34;;;6.51;100.00
21902;BME280;11115;46.038;14.612;2023-11-21T05:55:15;97826.91;;;6.54;100.00
21902;BME280;11115;46.038;14.612;2023-11-21T05:57:43;97819.38;;;6.46;100.00
21902;BME280;11115;46.038;14.612;2023-11-21T06:00:13;97826.09;;;6.53;100.00
21902;BME280;11115;46.038;14.612;2023-11-21T06:02:48;97820.19;;;6.46;100.00
21902;BME280;11115;46.038;14.612;2023-11-21T06:05:21;97804.38;;;6.38;100.00
21902;BME280;11115;46.038;14.612;2023-11-21T06:07:50;97810.72;;;6.52;100.00
21902;BME280;11115;46.038;14.612;2023-11-21T06:10:22;97812.22;;;6.63;100.00
21902;BME280;11115;46.038;14.612;2023-11-21T06:12:52;97811.19;;;6.59;100.00
21902;BME280;11115;46.038;14.612;2023-11-21T06:15:20;97813.63;;;6.61;100.00
21902;BME280;11115;46.038;14.612;2023-11-21T06:17:50;97820.09;;;6.51;100.00
21902;BME280;11115;46.038;14.612;2023-11-21T06:20:20;97827.31;;;6.47;100.00
21902;BME280;11115;46.038;14.612;2023-11-21T06:22:50;97830.22;;;6.56;100.00
21902;BME280;11115;46.038;14.612;2023-11-21T06:25:19;97831.84;;;6.57;100.00
21902;BME280;11115;46.038;14.612;2023-11-21T06:27:48;97835.75;;;6.51;100.00
21902;BME280;11115;46.038;14.612;2023-11-21T06:30:17;97840.34;;;6.55;100.00
21902;BME280;11115;46.038;14.612;2023-11-21T06:32:47;97835.47;;;6.52;100.00
21902;BME280;11115;46.038;14.612;2023-11-21T06:35:15;97842.06;;;6.51;100.00
21902;BME280;11115;46.038;14.612;2023-11-21T06:37:44;97823.38;;;6.34;100.00
21902;BME280;11115;46.038;14.612;2023-11-21T06:40:17;97841.34;;;6.46;100.00
21902;BME280;11115;46.038;14.612;2023-11-21T06:42:47;97843.38;;;6.40;100.00
21902;BME280;11115;46.038;14.612;2023-11-21T06:45:16;97855.38;;;6.44;100.00
21902;BME280;11115;46.038;14.612;2023-11-21T06:47:44;97853.16;;;6.46;100.00
21902;BME280;11115;46.038;14.612;2023-11-21T06:50:13;97853.16;;;6.46;100.00
21902;BME280;11115;46.038;14.612;2023-11-21T06:52:41;97862.13;;;6.52;100.00
21902;BME280;11115;46.038;14.612;2023-11-21T06:55:09;97851.81;;;6.44;100.00
21902;BME280;11115;46.038;14.612;2023-11-21T06:57:38;97862.44;;;6.50;100.00
21902;BME280;11115;46.038;14.612;2023-11-21T07:00:06;97877.97;;;6.60;100.00
21902;BME280;11115;46.038;14.612;2023-11-21T07:02:36;97872.47;;;6.60;100.00
21902;BME280;11115;46.038;14.612;2023-11-21T07:05:05;97880.09;;;6.63;100.00
21902;BME280;11115;46.038;14.612;2023-11-21T07:07:33;97884.28;;;6.60;100.00
21902;BME280;11115;46.038;14.612;2023-11-21T07:10:03;97853.22;;;6.41;100.00
21902;BME280;11115;46.038;14.612;2023-11-21T07:12:32;97817.59;;;6.17;100.00
21902;BME280;11115;46.038;14.612;2023-11-21T07:15:00;97878.84;;;6.55;100.00
21902;BME280;11115;46.038;14.612;2023-11-21T07:17:29;97875.81;;;6.57;100.00
21902;BME280;11115;46.038;14.612;2023-11-21T07:19:58;97886.56;;;6.72;100.00
21902;BME280;11115;46.038;14.612;2023-11-21T07:22:26;97891.22;;;6.72;100.00
21902;BME280;11115;46.038;14.612;2023-11-21T07:24:55;97874.19;;;6.56;100.00
21902;BME280;11115;46.038;14.612;2023-11-21T07:27:23;97891.53;;;6.70;100.00
21902;BME280;11115;46.038;14.612;2023-11-21T07:29:51;97899.94;;;6.79;100.00
21902;BME280;11115;46.038;14.612;2023-11-21T07:32:19;97900.81;;;6.74;100.00
21902;BME280;11115;46.038;14.612;2023-11-21T07:34:47;97898.88;;;6.75;100.00
21902;BME280;11115;46.038;14.612;2023-11-21T07:37:15;97909.59;;;6.76;100.00
21902;BME280;11115;46.038;14.612;2023-11-21T07:39:43;97893.53;;;6.83;100.00
21902;BME280;11115;46.038;14.612;2023-11-21T07:42:11;97889.97;;;6.83;100.00
21902;BME280;11115;46.038;14.612;2023-11-21T07:44:40;97894.34;;;6.84;100.00
21902;BME280;11115;46.038;14.612;2023-11-21T07:47:08;97896.00;;;6.85;100.00
21902;BME280;11115;46.038;14.612;2023-11-21T07:49:36;97891.00;;;6.87;100.00
21902;BME280;11115;46.038;14.612;2023-11-21T07:52:04;97894.56;;;6.87;100.00
21902;BME280;11115;46.038;14.612;2023-11-21T07:54:32;97883.06;;;6.85;100.00
21902;BME280;11115;46.038;14.612;2023-11-21T07:57:02;97898.00;;;6.98;100.00
21902;BME280;11115;46.038;14.612;2023-11-21T07:59:30;97903.81;;;7.10;100.00
21902;BME280;11115;46.038;14.612;2023-11-21T08:01:58;97903.81;;;7.10;100.00
21902;BME280;11115;46.038;14.612;2023-11-21T08:04:26;97877.78;;;6.89;100.00
21902;BME280;11115;46.038;14.612;2023-11-21T08:06:58;97909.00;;;6.98;100.00
21902;BME280;11115;46.038;14.612;2023-11-21T08:09:26;97910.00;;;7.02;100.00
21902;BME280;11115;46.038;14.612;2023-11-21T08:11:54;97913.38;;;6.99;100.00
21902;BME280;11115;46.038;14.612;2023-11-21T08:14:23;97911.75;;;6.98;100.00
21902;BME280;11115;46.038;14.612;2023-11-21T08:16:52;97910.63;;;6.99;100.00
21902;BME280;11115;46.038;14.612;2023-11-21T08:19:27;97918.56;;;7.00;100.00
21902;BME280;11115;46.038;14.612;2023-11-21T08:21:55;97909.72;;;7.04;100.00
21902;BME280;11115;46.038;14.612;2023-11-21T08:24:23;97905.16;;;7.13;100.00
21902;BME280;11115;46.038;14.612;2023-11-21T08:26:51;97901.94;;;7.24;100.00
21902;BME280;11115;46.038;14.612;2023-11-21T08:29:19;97906.00;;;7.27;100.00
21902;BME280;11115;46.038;14.612;2023-11-21T08:31:47;97902.66;;;7.30;100.00
21902;BME280;11115;46.038;14.612;2023-11-21T08:34:15;97907.66;;;7.28;100.00
21902;BME280;11115;46.038;14.612;2023-11-21T08:36:43;97894.38;;;7.16;100.00
21902;BME280;11115;46.038;14.612;2023-11-21T08:39:12;97892.75;;;7.15;100.00
21902;BME280;11115;46.038;14.612;2023-11-21T08:41:43;97915.19;;;7.22;100.00
21902;BME280;11115;46.038;14.612;2023-11-21T08:44:11;97918.13;;;7.26;100.00
21902;BME280;11115;46.038;14.612;2023-11-21T08:46:39;97914.66;;;7.20;100.00
21902;BME280;11115;46.038;14.612;2023-11-21T08:49:08;97919.69;;;7.32;100.00
21902;BME280;11115;46.038;14.612;2023-11-21T08:51:36;97921.91;;;7.30;100.00
21902;BME280;11115;46.038;14.612;2023-11-21T08:54:04;97933.16;;;7.34;100.00
21902;BME280;11115;46.038;14.612;2023-11-21T08:56:34;97923.22;;;7.19;100.00
21902;BME280;11115;46.038;14.612;2023-11-21T08:59:03;97918.09;;;7.12;100.00
21902;BME280;11115;46.038;14.612;2023-11-21T09:01:31;97931.09;;;7.25;100.00
21902;BME280;11115;46.038;14.612;2023-11-21T09:03:59;97940.69;;;7.09;100.00
21902;BME280;11115;46.038;14.612;2023-11-21T09:06:29;97935.56;;;7.21;100.00
21902;BME280;11115;46.038;14.612;2023-11-21T09:08:57;97941.28;;;7.25;100.00
21902;BME280;11115;46.038;14.612;2023-11-21T09:11:25;97955.69;;;7.36;100.00
21902;BME280;11115;46.038;14.612;2023-11-21T09:14:00;97957.38;;;7.31;100.00
21902;BME280;11115;46.038;14.612;2023-11-21T09:16:28;97958.13;;;7.37;100.00
21902;BME280;11115;46.038;14.612;2023-11-21T09:18:56;97957.75;;;7.44;100.00
21902;BME280;11115;46.038;14.612;2023-11-21T09:21:25;97958.56;;;7.44;100.00
21902;BME280;11115;46.038;14.612;2023-11-21T09:23:54;97953.34;;;7.43;100.00
21902;BME280;11115;46.038;14.612;2023-11-21T09:26:22;97952.53;;;7.42;100.00
21902;BME280;11115;46.038;14.612;2023-11-21T09:28:50;97952.53;;;7.42;100.00
21902;BME280;11115;46.038;14.612;2023-11-21T09:31:18;97945.59;;;7.45;100.00
21902;BME280;11115;46.038;14.612;2023-11-21T09:33:49;97924.59;;;7.35;100.00
21902;BME280;11115;46.038;14.612;2023-11-21T09:36:17;97948.47;;;7.40;100.00
21902;BME280;11115;46.038;14.612;2023-11-21T09:38:45;97942.84;;;7.45;100.00
21902;BME280;11115;46.038;14.612;2023-11-21T09:42:25;97950.44;;;7.53;100.00
21902;BME280;11115;46.038;14.612;2023-11-21T09:44:54;97938.25;;;7.40;100.00
21902;BME280;11115;46.038;14.612;2023-11-21T09:47:28;97935.00;;;7.38;100.00
21902;BME280;11115;46.038;14.612;2023-11-21T09:49:56;97949.31;;;7.54;100.00
21902;BME280;11115;46.038;14.612;2023-11-21T09:52:28;97950.72;;;7.51;100.00
21902;BME280;11115;46.038;14.612;2023-11-21T09:54:56;97919.00;;;7.40;100.00
21902;BME280;11115;46.038;14.612;2023-11-21T09:57:25;97940.53;;;7.52;100.00
21902;BME280;11115;46.038;14.612;2023-11-21T09:59:55;97949.63;;;7.66;100.00
21902;BME280;11115;46.038;14.612;2023-11-21T10:02:27;97933.41;;;7.65;100.00
21902;BME280;11115;46.038;14.612;2023-11-21T10:04:59;97912.41;;;7.55;100.00
21902;BME280;11115;46.038;14.612;2023-11-21T10:07:28;97935.09;;;7.79;100.00
21902;BME280;11115;46.038;14.612;2023-11-21T10:09:59;97945.28;;;7.79;100.00
21902;BME280;11115;46.038;14.612;2023-11-21T10:12:28;97948.13;;;7.74;100.00
21902;BME280;11115;46.038;14.612;2023-11-21T10:14:58;97922.22;;;7.61;100.00
21902;BME280;11115;46.038;14.612;2023-11-21T10:17:29;97940.75;;;7.69;100.00
21902;BME280;11115;46.038;14.612;2023-11-21T10:20:07;97945.47;;;7.82;100.00
21902;BME280;11115;46.038;14.612;2023-11-21T10:22:42;97932.22;;;7.84;100.00
21902;BME280;11115;46.038;14.612;2023-11-21T10:25:12;97939.56;;;7.89;100.00
21902;BME280;11115;46.038;14.612;2023-11-21T10:27:41;97937.03;;;7.93;100.00
21902;BME280;11115;46.038;14.612;2023-11-21T10:30:10;97929.38;;;7.89;100.00
21902;BME280;11115;46.038;14.612;2023-11-21T10:32:39;97935.78;;;7.85;100.00
21902;BME280;11115;46.038;14.612;2023-11-21T10:35:08;97925.53;;;7.90;100.00
21902;BME280;11115;46.038;14.612;2023-11-21T10:37:38;97927.44;;;7.90;100.00
21902;BME280;11115;46.038;14.612;2023-11-21T10:40:11;97924.69;;;7.90;100.00
21902;BME280;11115;46.038;14.612;2023-11-21T10:42:40;97913.88;;;7.94;100.00
21902;BME280;11115;46.038;14.612;2023-11-21T10:45:09;97906.81;;;7.87;100.00
21902;BME280;11115;46.038;14.612;2023-11-21T10:47:44;97908.38;;;7.94;100.00
21902;BME280;11115;46.038;14.612;2023-11-21T10:50:12;97903.88;;;7.98;100.00
21902;BME280;11115;46.038;14.612;2023-11-21T10:52:41;97901.84;;;8.03;100.00
21902;BME280;11115;46.038;14.612;2023-11-21T10:55:18;97908.16;;;8.04;100.00
21902;BME280;11115;46.038;14.612;2023-11-21T10:57:49;97894.28;;;8.09;100.00
21902;BME280;11115;46.038;14.612;2023-11-21T11:00:19;97904.91;;;8.15;100.00
21902;BME280;11115;46.038;14.612;2023-11-21T11:02:54;97911.94;;;8.21;100.00
21902;BME280;11115;46.038;14.612;2023-11-21T11:05:24;97923.78;;;8.22;100.00
21902;BME280;11115;46.038;14.612;2023-11-21T11:07:59;97930.28;;;8.26;100.00
21902;BME280;11115;46.038;14.612;2023-11-21T11:10:28;97927.56;;;8.12;100.00
21902;BME280;11115;46.038;14.612;2023-11-21T11:12:58;97927.94;;;8.06;100.00
21902;BME280;11115;46.038;14.612;2023-11-21T11:15:27;97927.25;;;8.14;100.00
21902;BME280;11115;46.038;14.612;2023-11-21T11:17:55;97909.91;;;8.13;100.00
21902;BME280;11115;46.038;14.612;2023-11-21T11:20:45;97911.84;;;8.13;100.00
21902;BME280;11115;46.038;14.612;2023-11-21T11:23:40;97896.44;;;8.12;100.00
21902;BME280;11115;46.038;14.612;2023-11-21T11:27:17;97895.09;;;8.23;100.00
21902;BME280;11115;46.038;14.612;2023-11-21T11:34:29;97892.22;;;8.28;100.00
21902;BME280;11115;46.038;14.612;2023-11-21T11:37:06;97905.41;;;8.31;100.00
21902;BME280;11115;46.038;14.612;2023-11-21T11:39:42;97906.00;;;8.42;100.00
21902;BME280;11115;46.038;14.612;2023-11-21T11:42:13;97903.25;;;8.42;100.00
21902;BME280;11115;46.038;14.612;2023-11-21T11:47:13;97902.94;;;8.43;100.00
21902;BME280;11115;46.038;14.612;2023-11-21T11:50:06;97897.34;;;8.48;100.00
21902;BME280;11115;46.038;14.612;2023-11-21T11:52:45;97896.81;;;8.46;100.00
21902;BME280;11115;46.038;14.612;2023-11-21T11:55:17;97887.13;;;8.49;100.00
21902;BME280;11115;46.038;14.612;2023-11-21T11:57:47;97888.53;;;8.60;100.00
21902;BME280;11115;46.038;14.612;2023-11-21T12:00:22;97845.25;;;8.47;100.00
21902;BME280;11115;46.038;14.612;2023-11-21T12:02:56;97879.81;;;8.67;100.00
21902;BME280;11115;46.038;14.612;2023-11-21T12:05:27;97872.97;;;8.64;100.00
21902;BME280;11115;46.038;14.612;2023-11-21T12:07:57;97863.38;;;8.62;100.00
21902;BME280;11115;46.038;14.612;2023-11-21T12:10:33;97862.25;;;8.63;100.00
21902;BME280;11115;46.038;14.612;2023-11-21T12:13:07;97863.06;;;8.63;100.00
21902;BME280;11115;46.038;14.612;2023-11-21T12:15:36;97861.25;;;8.59;100.00
21902;BME280;11115;46.038;14.612;2023-11-21T12:18:05;97857.47;;;8.68;100.00
21902;BME280;11115;46.038;14.612;2023-11-21T12:20:33;97859.50;;;8.63;100.00
21902;BME280;11115;46.038;14.612;2023-11-21T12:23:06;97862.16;;;8.68;100.00
21902;BME280;11115;46.038;14.612;2023-11-21T12:25:36;97859.28;;;8.73;100.00
21902;BME280;11115;46.038;14.612;2023-11-21T12:28:08;97851.50;;;8.75;100.00
21902;BME280;11115;46.038;14.612;2023-11-21T12:30:37;97853.63;;;8.78;100.00
21902;BME280;11115;46.038;14.612;2023-11-21T12:33:06;97859.78;;;8.75;100.00
21902;BME280;11115;46.038;14.612;2023-11-21T12:35:37;97837.94;;;8.65;100.00
21902;BME280;11115;46.038;14.612;2023-11-21T12:38:05;97838.44;;;8.67;100.00
21902;BME280;11115;46.038;14.612;2023-11-21T12:40:36;97855.13;;;8.84;100.00
21902;BME280;11115;46.038;14.612;2023-11-21T12:43:06;97851.69;;;8.78;100.00
21902;BME280;11115;46.038;14.612;2023-11-21T12:45:36;97847.69;;;8.85;100.00
21902;BME280;11115;46.038;14.612;2023-11-21T12:48:05;97851.16;;;8.90;100.00
21902;BME280;11115;46.038;14.612;2023-11-21T12:50:35;97844.00;;;8.89;100.00
21902;BME280;11115;46.038;14.612;2023-11-21T12:53:09;97855.75;;;8.81;100.00
21902;BME280;11115;46.038;14.612;2023-11-21T12:55:39;97839.72;;;8.83;100.00
21902;BME280;11115;46.038;14.612;2023-11-21T12:58:10;97853.91;;;8.90;100.00
21902;BME280;11115;46.038;14.612;2023-11-21T13:00:43;97847.06;;;8.88;100.00
21902;BME280;11115;46.038;14.612;2023-11-21T13:03:14;97837.41;;;8.76;100.00
21902;BME280;11115;46.038;14.612;2023-11-21T13:05:47;97838.09;;;8.82;100.00
21902;BME280;11115;46.038;14.612;2023-11-21T13:08:20;97835.78;;;8.75;100.00
21902;BME280;11115;46.038;14.612;2023-11-21T13:10:54;97828.94;;;8.73;100.00